createdAt,value
2023-04-21T00:02:17.512Z,9.53
2023-04-21T00:05:23.732Z,8.93
2023-04-21T00:08:29.963Z,7.73
2023-04-21T00:11:36.201Z,9.63
2023-04-21T00:14:43.717Z,11.80
2023-04-21T00:17:49.996Z,11.60
2023-04-21T00:20:56.429Z,10.97
2023-04-21T00:24:03.009Z,8.07
2023-04-21T00:27:08.929Z,10.83
2023-04-21T00:30:16.795Z,11.93
2023-04-21T00:33:22.967Z,7.23
2023-04-21T00:36:29.340Z,20.87
2023-04-21T00:39:35.320Z,18.27
2023-04-21T00:42:41.340Z,14.87
2023-04-21T00:45:48.614Z,14.93
2023-04-21T00:48:54.799Z,11.20
2023-04-21T00:52:01.107Z,9.70
2023-04-21T00:55:08.594Z,8.47
2023-04-21T00:58:14.797Z,8.43
2023-04-21T01:01:22.857Z,6.60
2023-04-21T01:04:35.570Z,6.70
2023-04-21T01:07:41.699Z,7.77
2023-04-21T01:10:47.734Z,7.20
2023-04-21T01:13:54.605Z,7.50
2023-04-21T01:17:05.386Z,18.40
2023-04-21T01:20:13.632Z,10.60
2023-04-21T01:23:21.374Z,6.50
2023-04-21T01:26:27.585Z,7.53
2023-04-21T01:29:35.018Z,7.73
2023-04-21T01:32:41.048Z,9.10
2023-04-21T01:35:47.302Z,7.87
2023-04-21T01:38:54.987Z,8.60
2023-04-21T01:42:01.413Z,12.07
2023-04-21T01:45:08.949Z,10.60
2023-04-21T01:48:15.531Z,9.77
2023-04-21T01:51:21.817Z,8.90
2023-04-21T01:54:29.179Z,8.87
2023-04-21T01:57:35.585Z,9.23
2023-04-21T02:00:41.962Z,8.20
2023-04-21T02:03:48.518Z,8.63
2023-04-21T02:06:55.077Z,43.63
2023-04-21T02:10:03.053Z,20.47
2023-04-21T02:13:09.252Z,8.20
2023-04-21T02:16:15.505Z,7.20
2023-04-21T02:19:22.000Z,7.40
2023-04-21T02:22:28.317Z,7.33
2023-04-21T02:25:35.607Z,8.10
2023-04-21T02:28:41.842Z,8.60
2023-04-21T02:32:00.847Z,7.10
2023-04-21T02:35:11.699Z,7.77
2023-04-21T02:38:17.431Z,7.43
2023-04-21T02:41:24.819Z,11.13
2023-04-21T02:44:31.302Z,9.83
2023-04-21T02:47:37.231Z,9.40
2023-04-21T02:50:44.535Z,8.23
2023-04-21T02:53:50.782Z,6.93
2023-04-21T02:56:58.512Z,6.87
2023-04-21T03:00:06.090Z,6.47
2023-04-21T03:03:12.394Z,6.83
2023-04-21T03:06:18.764Z,7.57
2023-04-21T03:09:24.967Z,7.70
2023-04-21T03:12:32.613Z,7.27
2023-04-21T03:15:38.961Z,8.03
2023-04-21T03:18:45.109Z,7.00
2023-04-21T03:21:51.318Z,8.33
2023-04-21T03:24:57.714Z,8.20
2023-04-21T03:28:05.254Z,8.07
2023-04-21T03:31:11.298Z,21.20
2023-04-21T03:34:17.354Z,16.90
2023-04-21T03:37:23.335Z,17.90
2023-04-21T03:40:30.182Z,14.50
2023-04-21T03:43:37.945Z,13.97
2023-04-21T03:46:44.276Z,19.37
2023-04-21T03:49:50.508Z,18.03
2023-04-21T03:52:56.860Z,14.67
2023-04-21T03:56:03.147Z,9.60
2023-04-21T03:59:10.879Z,9.33
2023-04-21T04:02:17.293Z,7.00
2023-04-21T04:05:23.654Z,7.07
2023-04-21T04:08:29.797Z,8.07
2023-04-21T04:11:36.352Z,9.07
2023-04-21T04:14:43.876Z,9.17
2023-04-21T04:17:50.466Z,9.83
2023-04-21T04:20:56.908Z,16.77
2023-04-21T04:24:05.365Z,14.73
2023-04-21T04:27:14.044Z,16.33
2023-04-21T04:30:21.607Z,13.30
2023-04-21T04:33:27.585Z,15.40
2023-04-21T04:36:33.669Z,14.40
2023-04-21T04:39:40.046Z,15.33
2023-04-21T04:42:48.977Z,17.00
2023-04-21T04:45:56.782Z,16.13
2023-04-21T04:49:03.302Z,21.13
2023-04-21T04:52:09.526Z,22.83
2023-04-21T04:55:15.524Z,20.73
2023-04-21T04:58:22.332Z,16.60
2023-04-21T05:01:31.083Z,20.00
2023-04-21T05:04:37.602Z,21.30
2023-04-21T05:07:43.718Z,34.33
2023-04-21T05:10:50.061Z,25.43
2023-04-21T05:13:56.773Z,21.87
2023-04-21T05:17:04.344Z,15.80
2023-04-21T05:20:11.527Z,14.10
2023-04-21T05:23:17.622Z,19.70
2023-04-21T05:26:24.040Z,10.43
2023-04-21T05:29:30.320Z,7.00
2023-04-21T05:32:37.740Z,8.20
2023-04-21T05:35:44.072Z,7.90
2023-04-21T05:38:50.410Z,9.23
2023-04-21T05:41:56.561Z,7.43
2023-04-21T05:45:02.774Z,5.93
2023-04-21T05:48:12.277Z,6.13
2023-04-21T05:51:19.558Z,6.27
2023-04-21T05:54:25.642Z,6.87
2023-04-21T05:57:31.627Z,7.33
2023-04-21T06:00:37.812Z,9.60
2023-04-21T06:03:45.476Z,8.33
2023-04-21T06:06:51.497Z,7.73
2023-04-21T06:09:58.073Z,9.03
2023-04-21T06:13:04.121Z,6.90
2023-04-21T06:16:10.216Z,6.53
2023-04-21T06:19:17.720Z,6.83
2023-04-21T06:22:24.081Z,6.97
2023-04-21T06:25:30.372Z,8.53
2023-04-21T06:28:39.350Z,7.00
2023-04-21T06:31:45.831Z,7.27
2023-04-21T06:34:53.439Z,7.43
2023-04-21T06:37:59.695Z,7.40
2023-04-21T06:41:06.672Z,6.83
2023-04-21T06:44:14.280Z,6.10
2023-04-21T06:47:20.650Z,7.13
2023-04-21T06:50:28.394Z,7.03
2023-04-21T06:53:34.487Z,6.57
2023-04-21T06:56:42.965Z,6.67
2023-04-21T06:59:49.254Z,11.43
2023-04-21T07:02:55.412Z,11.80
2023-04-21T07:06:03.001Z,10.53
2023-04-21T07:09:09.261Z,6.37
2023-04-21T07:12:16.109Z,5.87
2023-04-21T07:15:22.192Z,7.37
2023-04-21T07:18:28.075Z,6.20
2023-04-21T07:21:36.408Z,11.40
2023-04-21T07:24:42.639Z,10.00
2023-04-21T07:27:48.917Z,12.03
2023-04-21T07:30:54.963Z,7.47
2023-04-21T07:34:01.091Z,7.03
2023-04-21T07:37:08.707Z,5.40
2023-04-21T07:40:15.327Z,4.87
2023-04-21T07:43:21.613Z,8.10
2023-04-21T07:46:30.558Z,5.03
2023-04-21T07:49:36.928Z,6.67
2023-04-21T07:52:44.842Z,6.90
2023-04-21T07:55:51.109Z,10.37
2023-04-21T07:58:57.681Z,7.47
2023-04-21T08:02:04.156Z,8.50
2023-04-21T08:05:10.778Z,5.77
2023-04-21T08:08:20.559Z,6.87
2023-04-21T08:11:28.641Z,7.47
2023-04-21T08:14:35.058Z,6.70
2023-04-21T08:17:41.478Z,9.80
2023-04-21T08:20:48.205Z,7.20
2023-04-21T08:23:56.603Z,11.70
2023-04-21T08:27:03.556Z,11.27
2023-04-21T08:30:11.388Z,6.33
2023-04-21T08:33:17.913Z,5.90
2023-04-21T08:36:29.536Z,5.57
2023-04-21T08:39:38.100Z,5.57
2023-04-21T08:42:44.846Z,6.10
2023-04-21T08:45:54.397Z,5.70
2023-04-21T08:49:01.508Z,6.67
2023-04-21T08:52:08.162Z,4.33
2023-04-21T08:55:16.883Z,4.37
2023-04-21T08:58:23.868Z,4.10
2023-04-21T09:01:30.421Z,4.23
2023-04-21T09:04:36.818Z,3.23
2023-04-21T09:07:43.118Z,3.77
2023-04-21T09:10:53.201Z,4.37
2023-04-21T09:14:01.493Z,5.70
2023-04-21T09:17:07.868Z,5.10
2023-04-21T09:20:16.655Z,3.77
2023-04-21T09:23:23.216Z,4.43
2023-04-21T09:26:31.857Z,3.53
2023-04-21T09:29:38.866Z,3.37
2023-04-21T09:32:44.965Z,3.10
2023-04-21T09:35:51.572Z,2.67
2023-04-21T09:42:12.687Z,3.03
2023-04-21T09:48:33.368Z,3.20
2023-04-21T09:52:05.395Z,2.90
2023-04-21T09:55:12.766Z,3.40
2023-04-21T09:58:24.868Z,3.53
2023-04-21T10:01:32.238Z,4.00
2023-04-21T10:04:39.386Z,2.87
2023-04-21T10:07:46.993Z,6.20
2023-04-21T10:10:54.639Z,4.13
2023-04-21T10:14:02.309Z,8.17
2023-04-21T10:17:10.237Z,6.03
2023-04-21T10:20:17.212Z,5.80
2023-04-21T10:23:31.902Z,3.00
2023-04-21T10:26:38.065Z,4.80
2023-04-21T10:29:56.150Z,3.53
2023-04-21T10:33:04.847Z,4.00
2023-04-21T10:36:15.843Z,8.27
2023-04-21T10:39:31.527Z,5.07
2023-04-21T10:42:38.173Z,3.87
2023-04-21T10:45:47.239Z,3.53
2023-04-21T10:48:54.290Z,3.67
2023-04-21T10:52:12.383Z,4.20
2023-04-21T10:55:18.958Z,4.50
2023-04-21T10:58:26.093Z,4.10
2023-04-21T11:01:33.907Z,3.47
2023-04-21T11:04:45.466Z,3.97
2023-04-21T11:07:52.770Z,4.57
2023-04-21T11:10:58.875Z,3.50
2023-04-21T11:14:04.885Z,3.10
2023-04-21T11:17:14.851Z,5.03
2023-04-21T11:20:21.132Z,4.03
2023-04-21T11:23:27.320Z,3.33
2023-04-21T11:26:34.936Z,2.67
2023-04-21T11:29:41.543Z,3.50
2023-04-21T11:32:55.833Z,4.13
2023-04-21T11:36:05.818Z,4.00
2023-04-21T11:39:15.894Z,3.90
2023-04-21T11:42:23.470Z,4.57
2023-04-21T11:45:30.601Z,4.73
2023-04-21T11:48:38.384Z,4.87
2023-04-21T11:51:46.962Z,3.47
2023-04-21T11:54:57.996Z,4.70
2023-04-21T11:58:04.636Z,4.57
2023-04-21T12:01:12.086Z,3.30
2023-04-21T12:04:21.526Z,4.10
2023-04-21T12:07:27.609Z,3.13
2023-04-21T12:10:34.133Z,4.47
2023-04-21T12:13:41.993Z,4.07
2023-04-21T12:16:50.404Z,3.80
2023-04-21T12:20:06.142Z,3.53
2023-04-21T12:23:12.317Z,3.57
2023-04-21T12:26:18.612Z,3.90
2023-04-21T12:29:24.707Z,3.50
2023-04-21T12:32:31.012Z,2.80
2023-04-21T12:35:39.230Z,3.40
2023-04-21T12:38:45.809Z,4.00
2023-04-21T12:41:52.589Z,4.20
2023-04-21T12:44:58.926Z,3.57
2023-04-21T12:48:05.588Z,5.67
2023-04-21T12:51:13.550Z,5.00
2023-04-21T12:54:20.073Z,3.70
2023-04-21T12:57:26.604Z,4.47
2023-04-21T13:00:35.225Z,4.80
2023-04-21T13:03:41.888Z,5.20
2023-04-21T13:06:49.808Z,4.20
2023-04-21T13:09:56.236Z,3.97
2023-04-21T13:13:02.415Z,4.60
2023-04-21T13:16:09.288Z,5.33
2023-04-21T13:19:15.649Z,4.33
2023-04-21T13:22:23.712Z,5.23
2023-04-21T13:25:30.207Z,5.37
2023-04-21T13:28:36.473Z,4.97
2023-04-21T13:31:42.617Z,6.07
2023-04-21T13:34:48.827Z,4.43
2023-04-21T13:37:56.457Z,3.77
2023-04-21T13:41:02.507Z,5.23
2023-04-21T13:44:08.802Z,4.30
2023-04-21T13:47:14.943Z,6.47
2023-04-21T13:50:21.430Z,5.53
2023-04-21T13:53:29.759Z,5.00
2023-04-21T13:56:36.299Z,5.57
2023-04-21T13:59:42.708Z,5.67
2023-04-21T14:02:49.534Z,4.43
2023-04-21T14:05:57.168Z,5.17
2023-04-21T14:09:06.575Z,3.60
2023-04-21T14:12:13.089Z,5.00
2023-04-21T14:15:19.443Z,3.73
2023-04-21T14:18:25.891Z,4.13
2023-04-21T14:21:32.782Z,4.87
2023-04-21T14:24:41.104Z,6.73
2023-04-21T14:27:47.388Z,7.80
2023-04-21T14:30:53.497Z,7.63
2023-04-21T14:33:59.573Z,8.17
2023-04-21T14:37:05.996Z,6.30
2023-04-21T14:40:14.418Z,7.83
2023-04-21T14:43:20.587Z,11.47
2023-04-21T14:46:29.228Z,5.20
2023-04-21T14:49:36.252Z,5.33
2023-04-21T14:52:42.891Z,4.87
2023-04-21T14:55:51.435Z,5.53
2023-04-21T14:58:58.602Z,8.50
2023-04-21T15:02:05.499Z,7.23
2023-04-21T15:05:12.312Z,7.87
2023-04-21T15:08:18.539Z,8.43
2023-04-21T15:11:27.024Z,9.17
2023-04-21T15:14:33.626Z,10.97
2023-04-21T15:17:39.982Z,9.40
2023-04-21T15:20:46.306Z,12.70
2023-04-21T15:23:52.181Z,7.73
2023-04-21T15:26:59.904Z,7.97
2023-04-21T15:30:07.161Z,7.97
2023-04-21T15:33:13.393Z,7.97
2023-04-21T15:36:19.757Z,7.73
2023-04-21T15:39:25.896Z,13.90
2023-04-21T15:42:33.788Z,11.37
2023-04-21T15:45:41.134Z,7.73
2023-04-21T15:48:47.389Z,6.60
2023-04-21T15:51:53.653Z,7.47
2023-04-21T15:54:59.926Z,7.80
2023-04-21T15:58:07.629Z,10.10
2023-04-21T16:01:14.115Z,9.20
2023-04-21T16:04:20.726Z,6.80
2023-04-21T16:07:28.586Z,6.63
2023-04-21T16:10:34.780Z,10.90
2023-04-21T16:13:42.673Z,7.50
2023-04-21T16:16:49.091Z,5.50
2023-04-21T16:19:55.370Z,5.27
2023-04-21T16:23:01.799Z,5.33
2023-04-21T16:26:09.262Z,5.53
2023-04-21T16:29:17.018Z,7.30
2023-04-21T16:32:23.543Z,4.57
2023-04-21T16:35:29.912Z,6.87
2023-04-21T16:38:36.112Z,5.60
2023-04-21T16:41:42.097Z,5.37
2023-04-21T16:44:50.882Z,6.13
2023-04-21T16:47:57.541Z,4.83
2023-04-21T16:51:03.976Z,8.40
2023-04-21T16:54:10.038Z,6.93
2023-04-21T16:57:16.720Z,6.93
2023-04-21T17:00:24.818Z,7.67
2023-04-21T17:03:31.612Z,7.67
2023-04-21T17:06:37.975Z,10.10
2023-04-21T17:09:44.519Z,13.03
2023-04-21T17:12:51.088Z,12.00
2023-04-21T17:15:59.289Z,21.43
2023-04-21T17:19:05.741Z,23.27
2023-04-21T17:22:12.108Z,25.47
2023-04-21T17:25:18.362Z,19.97
2023-04-21T17:28:24.780Z,22.67
2023-04-21T17:31:33.966Z,32.63
2023-04-21T17:34:40.545Z,54.83
2023-04-21T17:37:46.979Z,54.90
2023-04-21T17:40:53.640Z,75.07
2023-04-21T17:44:01.035Z,42.13
2023-04-21T17:47:09.481Z,67.17
2023-04-21T17:50:16.045Z,62.73
2023-04-21T17:53:22.568Z,57.40
2023-04-21T17:56:29.053Z,44.73
2023-04-21T17:59:35.427Z,32.50
2023-04-21T18:02:42.846Z,24.00
2023-04-21T18:05:49.094Z,23.77
2023-04-21T18:08:55.987Z,26.43
2023-04-21T18:12:02.019Z,23.23
2023-04-21T18:15:10.548Z,24.77
2023-04-21T18:18:18.051Z,26.10
2023-04-21T18:21:24.656Z,36.37
2023-04-21T18:24:30.933Z,30.03
2023-04-21T18:27:37.192Z,27.90
2023-04-21T18:30:44.073Z,28.50
2023-04-21T18:33:51.798Z,26.70
2023-04-21T18:36:58.392Z,58.50
2023-04-21T18:40:05.684Z,43.17
2023-04-21T18:43:12.182Z,48.97
2023-04-21T18:46:18.387Z,46.33
2023-04-21T18:49:26.480Z,48.37
2023-04-21T18:52:32.666Z,46.57
2023-04-21T18:55:39.053Z,45.50
2023-04-21T18:58:45.613Z,26.80
2023-04-21T19:01:52.163Z,34.67
2023-04-21T19:04:59.949Z,30.63
2023-04-21T19:08:06.647Z,29.77
2023-04-21T19:11:14.550Z,30.67
2023-04-21T19:14:20.880Z,27.63
2023-04-21T19:17:27.167Z,26.10
2023-04-21T19:20:35.926Z,22.00
2023-04-21T19:23:42.332Z,24.30
2023-04-21T19:26:48.517Z,23.90
2023-04-21T19:29:54.640Z,24.17
2023-04-21T19:33:00.617Z,27.17
2023-04-21T19:36:08.155Z,30.77
2023-04-21T19:39:14.416Z,30.60
2023-04-21T19:42:20.382Z,31.70
2023-04-21T19:45:27.402Z,28.83
2023-04-21T19:48:33.405Z,30.03
2023-04-21T19:51:41.226Z,20.97
2023-04-21T19:54:47.220Z,14.70
2023-04-21T19:57:53.285Z,13.13
2023-04-21T20:00:59.683Z,11.87
2023-04-21T20:04:06.919Z,14.97
2023-04-21T20:07:14.966Z,18.23
2023-04-21T20:10:22.130Z,19.03
2023-04-21T20:13:27.930Z,27.20
2023-04-21T20:16:34.391Z,28.73
2023-04-21T20:19:40.868Z,33.57
2023-04-21T20:22:48.963Z,57.80
2023-04-21T20:25:55.088Z,53.97
2023-04-21T20:29:01.080Z,40.57
2023-04-21T20:32:07.130Z,30.10
2023-04-21T20:35:16.860Z,31.43
2023-04-21T20:38:25.104Z,28.10
2023-04-21T20:41:31.442Z,20.70
2023-04-21T20:44:38.814Z,18.67
2023-04-21T20:47:45.282Z,19.80
2023-04-21T20:50:51.512Z,16.53
2023-04-21T20:53:59.610Z,20.20
2023-04-21T20:57:07.653Z,19.33
2023-04-21T21:00:14.498Z,29.53
2023-04-21T21:03:21.033Z,21.50
2023-04-21T21:06:27.514Z,20.83
2023-04-21T21:09:35.059Z,15.43
2023-04-21T21:12:41.572Z,25.73
2023-04-21T21:15:47.859Z,22.50
2023-04-21T21:18:53.858Z,18.23
2023-04-21T21:22:00.178Z,24.57
2023-04-21T21:25:08.166Z,17.70
2023-04-21T21:28:14.554Z,15.63
2023-04-21T21:31:20.788Z,23.30
2023-04-21T21:34:26.998Z,18.00
2023-04-21T21:37:33.549Z,10.03
2023-04-21T21:40:41.137Z,14.07
2023-04-21T21:43:47.056Z,14.90
2023-04-21T21:46:53.096Z,11.83
2023-04-21T21:49:59.259Z,12.47
2023-04-21T21:53:05.349Z,11.37
2023-04-21T21:56:13.450Z,11.10
2023-04-21T21:59:19.315Z,13.23
2023-04-21T22:02:25.706Z,21.43
2023-04-21T22:05:31.682Z,25.30
2023-04-21T22:08:37.940Z,13.27
2023-04-21T22:11:46.312Z,14.67
2023-04-21T22:14:53.037Z,14.00
2023-04-21T22:17:59.258Z,14.83
2023-04-21T22:21:05.852Z,15.07
2023-04-21T22:24:12.265Z,13.40
2023-04-21T22:27:20.075Z,14.60
2023-04-21T22:30:26.980Z,14.37
2023-04-21T22:33:33.028Z,13.37
2023-04-21T22:36:39.159Z,11.40
2023-04-21T22:39:45.998Z,12.67
2023-04-21T22:42:53.337Z,35.73
2023-04-21T22:46:00.353Z,14.20
2023-04-21T22:49:06.808Z,12.13
2023-04-21T22:52:12.973Z,10.43
2023-04-21T22:55:19.352Z,10.73
2023-04-21T22:58:27.487Z,12.80
2023-04-21T23:01:33.451Z,13.83
2023-04-21T23:04:39.795Z,13.70
2023-04-21T23:07:46.117Z,12.20
2023-04-21T23:10:52.867Z,11.50
2023-04-21T23:14:00.358Z,12.37
2023-04-21T23:17:06.699Z,11.43
2023-04-21T23:20:13.465Z,10.97
2023-04-21T23:23:20.203Z,11.40
2023-04-21T23:26:26.484Z,13.77
2023-04-21T23:29:33.859Z,15.83
2023-04-21T23:32:40.243Z,13.50
2023-04-21T23:35:46.463Z,12.20
2023-04-21T23:38:52.578Z,10.43
2023-04-21T23:41:58.953Z,10.73
2023-04-21T23:45:08.019Z,10.63
2023-04-21T23:48:14.030Z,10.67
2023-04-21T23:51:20.428Z,9.17
2023-04-21T23:54:26.690Z,9.97
2023-04-21T23:57:32.726Z,10.70
